Terminal Aerodrome Forecast
Issued by NWS Los Angeles, CA

Home | Current Version | Previous Version | Text Only | Print | Product List | Glossary On
Versions: 1 2 3 4 5 6 7 8 9 10 11 12 13 14 15 16 17 18 19 20 21 22 23 24 25 26 27 28 29 30
000
FTUS46 KLOX 251218 AAA
TAFSMX
TAF AMD
KSMX 251218Z 2512/2612 VRB03KT P6SM OVC020
     FM251400 17004KT P6SM OVC025
     FM252000 23010KT P6SM BKN025 BKN040
     FM260100 30010KT P6SM OVC025
     FM260600 VRB03KT P6SM OVC018=

USA.gov is the U.S. government's official web portal to all federal, state and local government web resources and services.